Friday, September 21, 2018, 9:25 PM EDT
Back to Local

KACY, Atlantic City International

Location: Absecon, NJ, United States Lat: 39.467
Local Time: 9:25 PM EDT ( 1:25 GMT) Lon: -74.583
Time Zone: US/Eastern Elev: 75 ft

Show me the last for .
Show Decoded

2018-09-21 20:54 METAR KACY 220054Z 19009KT 10SM CLR 23/20 A3005 RMK AO2 SLP175 T02330200 =
2018-09-21 19:54 METAR KACY 212354Z 18012G21KT 10SM CLR 23/20 A3004 RMK AO2 SLP172 T02330200
                 10256 20233 58024 =
2018-09-21 18:54 METAR KACY 212254Z 18009KT 10SM SCT039 23/19 A3007 RMK AO2 SLP182 T02330194 =
2018-09-21 17:54 METAR KACY 212154Z 18008KT 10SM CLR 24/19 A3009 RMK AO2 SLP189 T02440189 =
2018-09-21 16:54 METAR KACY 212054Z 19012G16KT 10SM BKN044 26/19 A3011 RMK AO2 SLP196 T02560194
                 58012 =
2018-09-21 16:02 METAR KACY 212002Z 19012G18KT 10SM SCT023 25/19 A3012 RMK AO2 T02500194 =
2018-09-21 15:54 METAR KACY 211954Z 16011G20KT 10SM BKN023 25/19 A3013 RMK AO2 SLP201 T02500194 =
2018-09-21 15:43 METAR KACY 211943Z 18010G19KT 10SM SCT023 25/19 A3013 RMK AO2 T02500194 =
2018-09-21 15:35 METAR KACY 211935Z 17014G21KT 10SM BKN024 BKN049 25/19 A3013 RMK AO2 T02500189 =
2018-09-21 15:21 METAR KACY 211921Z 20011KT 10SM SCT024 SCT049 25/19 A3014 RMK AO2 T02500189 =
2018-09-21 14:54 METAR KACY 211854Z 19010KT 10SM BKN026 BKN055 25/19 A3015 RMK AO2 SLP208
                 T02500189 =
2018-09-21 14:50 METAR KACY 211850Z 19013KT 10SM BKN026 BKN055 25/19 A3015 RMK AO2 =
2018-09-21 14:31 METAR KACY 211831Z 18011G20KT 10SM SCT026 OVC055 24/18 A3016 RMK AO2 T02440183 =
2018-09-21 13:54 METAR KACY 211754Z 19009KT 10SM BKN025 OVC048 24/19 A3018 RMK AO2 SLP219
                 T02440189 10250 20189 58017 =
2018-09-21 12:54 METAR KACY 211654Z 17009KT 10SM BKN025 BKN030 OVC049 24/18 A3020 RMK AO2 SLP226
                 T02390183 =
2018-09-21 12:26 METAR KACY 211626Z 19010KT 10SM BKN027 OVC034 24/18 A3021 RMK AO2 T02440183 =
2018-09-21 12:18 METAR KACY 211618Z 20010KT 10SM SCT027 OVC032 24/18 A3021 RMK AO2 T02390183 =
2018-09-21 11:54 METAR KACY 211554Z 17008KT 10SM OVC028 24/18 A3022 RMK AO2 SLP233 T02390183 =
2018-09-21 11:47 METAR KACY 211547Z 16007KT 10SM SCT024 OVC030 24/18 A3023 RMK AO2 T02390183 =
2018-09-21 11:17 METAR KACY 211517Z 19008KT 10SM BKN023 24/18 A3023 RMK AO2 T02390178 =
2018-09-21 10:54 METAR KACY 211454Z 15009KT 10SM SCT022 24/18 A3023 RMK AO2 SLP235 T02440183
                 58010 =
2018-09-21 10:21 METAR KACY 211421Z 15010KT 10SM SCT023 OVC049 23/18 A3024 RMK AO2 T02330183 =
2018-09-21 09:54 METAR KACY 211354Z 16006KT 10SM BKN022 OVC050 23/18 A3025 RMK AO2 SLP243
                 T02280183 =
2018-09-21 09:47 METAR KACY 211347Z 15006KT 10SM BKN021 BKN050 23/18 A3025 RMK AO2 T02280178 =
2018-09-21 08:54 METAR KACY 211254Z 16004KT 10SM OVC055 22/19 A3026 RMK AO2 SLP246 T02170189 =
2018-09-21 08:09 METAR KACY 211209Z 00000KT 10SM FEW028 BKN043 BKN060 19/18 A3027 RMK AO2
                 T01940178 =
2018-09-21 08:01 METAR KACY 211201Z 00000KT 10SM FEW028 SCT043 SCT060 19/18 A3026 RMK AO2
                 T01890178 =
2018-09-21 07:54 METAR KACY 211154Z 00000KT 10SM FEW022 BKN027 19/18 A3026 RMK AO2 SLP246
                 T01890178 10194 20161 50008 =
2018-09-21 07:26 METAR KACY 211126Z 00000KT 10SM SCT025 BKN065 17/17 A3026 RMK AO2 T01720167 =
2018-09-21 07:10 METAR KACY 211110Z 00000KT 10SM BKN024 17/17 A3026 RMK AO2 T01720167 =
2018-09-21 06:54 METAR KACY 211054Z 33005KT 10SM SCT023 17/17 A3026 RMK AO2 SLP247 T01720167 =
2018-09-21 05:54 METAR KACY 210954Z 11003KT 10SM CLR 17/16 A3024 RMK AO2 SLP240 T01670156 =
2018-09-21 04:54 METAR KACY 210854Z 00000KT 10SM FEW025 SCT060 17/16 A3024 RMK AO2 SLP238
                 T01720161 55000 =
2018-09-21 03:54 METAR KACY 210754Z 31004KT 10SM FEW023 SCT047 SCT060 18/17 A3023 RMK AO2 SLP237
                 T01780167 =
2018-09-21 02:54 METAR KACY 210654Z 05003KT 10SM BKN055 18/17 A3023 RMK AO2 SLP237 T01830167 =
2018-09-21 01:54 METAR KACY 210554Z 00000KT 10SM OVC049 18/17 A3024 RMK AO2 SLP239 T01780172
                 10189 20167 58006 =
2018-09-21 00:54 METAR KACY 210454Z 00000KT 10SM SCT022 SCT049 17/16 A3025 RMK AO2 SLP243
                 T01670161 402330167 =
2018-09-20 23:54 METAR KACY 210354Z 32004KT 10SM CLR 17/16 A3025 RMK AO2 SLP244 T01670156 =
2018-09-20 22:54 METAR KACY 210254Z 09003KT 10SM CLR 18/17 A3025 RMK AO2 SLP243 T01830167 51009 =
2018-09-20 21:54 METAR KACY 210154Z 10005KT 10SM CLR 18/16 A3024 RMK AO2 SLP238 T01780161 =

Support USWX by starting your Amazon purchase here.